createdAt,value
2022-11-07T00:01:36.091Z,68.74
2022-11-07T00:04:19.961Z,68.67
2022-11-07T00:07:04.465Z,70.29
2022-11-07T00:09:48.250Z,70.23
2022-11-07T00:12:35.311Z,69.37
2022-11-07T00:15:20.477Z,68.47
2022-11-07T00:18:04.408Z,68.16
2022-11-07T00:20:48.268Z,68.22
2022-11-07T00:23:32.125Z,69.68
2022-11-07T00:26:16.758Z,69.04
2022-11-07T00:29:00.720Z,68.41
2022-11-07T00:31:46.055Z,68.45
2022-11-07T00:34:29.708Z,70.42
2022-11-07T00:37:13.610Z,68.90
2022-11-07T00:39:57.256Z,68.45
2022-11-07T00:42:41.073Z,69.45
2022-11-07T00:45:24.854Z,68.77
2022-11-07T00:48:10.202Z,68.80
2022-11-07T00:50:54.096Z,68.46
2022-11-07T00:53:38.294Z,69.40
2022-11-07T00:56:25.080Z,68.43
2022-11-07T00:59:08.811Z,69.10
2022-11-07T01:01:52.639Z,68.24
2022-11-07T01:04:56.137Z,68.26
2022-11-07T01:07:40.622Z,68.38
2022-11-07T01:10:24.353Z,69.42
2022-11-07T01:13:08.156Z,69.46
2022-11-07T01:15:52.438Z,71.22
2022-11-07T01:18:36.176Z,70.05
2022-11-07T01:21:21.988Z,69.89
2022-11-07T01:24:06.597Z,70.05
2022-11-07T01:26:51.976Z,69.36
2022-11-07T01:29:36.037Z,68.72
2022-11-07T01:32:19.959Z,69.20
2022-11-07T01:35:04.106Z,68.98
2022-11-07T01:37:49.546Z,68.76
2022-11-07T01:40:54.378Z,69.49
2022-11-07T01:43:44.433Z,69.62
2022-11-07T01:46:31.539Z,69.37
2022-11-07T01:49:20.730Z,68.40
2022-11-07T01:52:08.414Z,68.84
2022-11-07T01:54:58.970Z,69.03
2022-11-07T01:57:46.475Z,69.21
2022-11-07T02:00:31.231Z,71.00
2022-11-07T02:03:18.686Z,70.92
2022-11-07T02:06:06.811Z,70.50
2022-11-07T02:08:51.992Z,70.00
2022-11-07T02:11:37.820Z,70.34
2022-11-07T02:14:21.590Z,69.70
2022-11-07T02:17:05.432Z,69.89
2022-11-07T02:19:51.472Z,70.17
2022-11-07T02:22:42.573Z,70.70
2022-11-07T02:25:28.164Z,69.99
2022-11-07T02:28:15.165Z,70.20
2022-11-07T02:30:58.945Z,70.79
2022-11-07T02:33:42.672Z,70.71
2022-11-07T02:36:27.213Z,70.30
2022-11-07T02:39:10.957Z,70.75
2022-11-07T02:41:58.824Z,69.34
2022-11-07T02:44:42.687Z,68.86
2022-11-07T02:47:26.333Z,69.53
2022-11-07T02:50:10.910Z,70.13
2022-11-07T02:52:54.734Z,69.34
2022-11-07T02:55:38.493Z,68.71
2022-11-07T02:58:23.688Z,69.11
2022-11-07T03:01:12.538Z,69.37
2022-11-07T03:03:56.455Z,69.75
2022-11-07T03:06:40.237Z,69.05
2022-11-07T03:09:24.101Z,70.01
2022-11-07T03:12:08.121Z,70.43
2022-11-07T03:14:53.300Z,69.62
2022-11-07T03:17:37.281Z,69.25
2022-11-07T03:20:21.191Z,69.29
2022-11-07T03:23:05.088Z,69.64
2022-11-07T03:25:48.948Z,69.81
2022-11-07T03:28:33.167Z,70.99
2022-11-07T03:31:18.445Z,71.23
2022-11-07T03:34:02.434Z,70.28
2022-11-07T03:36:46.505Z,70.50
2022-11-07T03:39:30.726Z,71.27
2022-11-07T03:42:14.650Z,70.92
2022-11-07T03:44:58.564Z,70.93
2022-11-07T03:47:45.643Z,69.95
2022-11-07T03:50:29.558Z,70.58
2022-11-07T03:53:13.904Z,69.81
2022-11-07T03:55:58.579Z,69.86
2022-11-07T03:58:42.680Z,69.94
2022-11-07T04:01:26.852Z,70.19
2022-11-07T04:04:13.319Z,69.77
2022-11-07T04:06:57.358Z,70.17
2022-11-07T04:09:41.401Z,69.27
2022-11-07T04:12:42.880Z,69.24
2022-11-07T04:15:44.499Z,68.53
2022-11-07T04:18:28.370Z,67.69
2022-11-07T04:21:13.510Z,67.12
2022-11-07T04:23:57.201Z,66.89
2022-11-07T04:26:58.040Z,66.88
2022-11-07T04:29:41.763Z,66.57
2022-11-07T04:32:25.750Z,67.76
2022-11-07T04:35:09.833Z,66.86
2022-11-07T04:37:55.195Z,66.91
2022-11-07T04:40:38.957Z,66.79
2022-11-07T04:43:22.965Z,67.53
2022-11-07T04:46:07.374Z,66.67
2022-11-07T04:48:51.538Z,66.34
2022-11-07T04:51:35.464Z,67.40
2022-11-07T04:54:20.567Z,68.77
2022-11-07T04:57:04.594Z,70.30
2022-11-07T04:59:48.376Z,70.00
2022-11-07T05:02:32.187Z,70.42
2022-11-07T05:05:16.485Z,70.52
2022-11-07T05:08:00.235Z,71.23
2022-11-07T05:10:45.427Z,72.15
2022-11-07T05:13:29.177Z,73.43
2022-11-07T05:16:17.137Z,73.41
2022-11-07T05:19:00.938Z,72.82
2022-11-07T05:21:44.778Z,74.04
2022-11-07T05:24:28.548Z,73.88
2022-11-07T05:27:19.978Z,74.21
2022-11-07T05:30:03.769Z,75.92
2022-11-07T05:32:47.518Z,76.25
2022-11-07T05:35:31.277Z,77.13
2022-11-07T05:38:15.337Z,77.40
2022-11-07T05:41:03.333Z,76.16
2022-11-07T05:43:49.110Z,76.88
2022-11-07T05:46:32.939Z,77.41
2022-11-07T05:49:16.790Z,77.86
2022-11-07T05:52:00.546Z,76.80
2022-11-07T05:54:44.254Z,76.98
2022-11-07T05:57:30.594Z,77.59
2022-11-07T06:00:16.902Z,77.98
2022-11-07T06:03:01.443Z,78.87
2022-11-07T06:05:45.290Z,79.81
2022-11-07T06:08:29.156Z,81.76
2022-11-07T06:11:12.953Z,81.50
2022-11-07T06:13:56.700Z,80.71
2022-11-07T06:16:41.851Z,80.62
2022-11-07T06:19:25.661Z,81.16
2022-11-07T06:22:09.621Z,81.49
2022-11-07T06:24:53.682Z,79.95
2022-11-07T06:27:37.434Z,80.57
2022-11-07T06:30:21.294Z,81.20
2022-11-07T06:33:08.706Z,82.43
2022-11-07T06:35:52.402Z,82.58
2022-11-07T06:38:36.254Z,82.64
2022-11-07T06:41:20.317Z,81.83
2022-11-07T06:44:04.051Z,82.29
2022-11-07T06:46:48.137Z,81.82
2022-11-07T06:49:33.235Z,81.75
2022-11-07T06:52:17.593Z,81.01
2022-11-07T06:55:01.254Z,80.37
2022-11-07T06:57:47.294Z,80.03
2022-11-07T07:00:33.141Z,78.83
2022-11-07T07:03:17.426Z,77.31
2022-11-07T07:06:04.145Z,78.34
2022-11-07T07:08:48.230Z,77.97
2022-11-07T07:11:32.188Z,77.81
2022-11-07T07:14:16.231Z,76.36
2022-11-07T07:17:00.297Z,75.54
2022-11-07T07:19:44.323Z,74.59
2022-11-07T07:22:29.920Z,72.93
2022-11-07T07:25:14.018Z,72.35
2022-11-07T07:27:58.038Z,70.93
2022-11-07T07:30:44.763Z,70.20
2022-11-07T07:33:32.981Z,69.95
2022-11-07T07:36:20.705Z,69.57
2022-11-07T07:39:06.634Z,70.19
2022-11-07T07:41:50.950Z,69.75
2022-11-07T07:44:38.179Z,68.67
2022-11-07T07:47:22.246Z,67.77
2022-11-07T07:50:06.724Z,67.35
2022-11-07T07:52:50.853Z,65.76
2022-11-07T07:55:36.330Z,67.64
2022-11-07T07:58:20.210Z,66.30
2022-11-07T08:01:10.459Z,65.56
2022-11-07T08:04:02.796Z,64.82
2022-11-07T08:06:46.811Z,64.79
2022-11-07T08:09:36.288Z,63.05
2022-11-07T08:12:21.404Z,62.92
2022-11-07T08:15:05.590Z,62.50
2022-11-07T08:17:49.893Z,61.53
2022-11-07T08:20:33.713Z,62.28
2022-11-07T08:23:18.000Z,60.81
2022-11-07T08:26:04.629Z,61.11
2022-11-07T08:28:49.936Z,59.89
2022-11-07T08:31:34.170Z,58.55
2022-11-07T08:34:18.665Z,58.95
2022-11-07T08:37:02.490Z,58.75
2022-11-07T08:39:46.162Z,58.31
2022-11-07T08:42:30.080Z,58.29
2022-11-07T08:45:15.574Z,58.21
2022-11-07T08:48:00.113Z,58.63
2022-11-07T08:50:44.391Z,57.75
2022-11-07T08:53:28.711Z,57.96
2022-11-07T08:56:12.802Z,57.62
2022-11-07T08:58:56.741Z,57.40
2022-11-07T09:02:15.192Z,56.60
2022-11-07T09:04:46.295Z,56.17
2022-11-07T09:07:30.470Z,56.40
2022-11-07T09:10:14.676Z,56.42
2022-11-07T09:12:58.696Z,56.54
2022-11-07T09:15:47.723Z,55.24
2022-11-07T09:18:36.087Z,56.91
2022-11-07T09:21:22.613Z,56.98
2022-11-07T09:24:08.223Z,57.76
2022-11-07T09:26:52.137Z,57.21
2022-11-07T09:29:36.237Z,55.71
2022-11-07T09:32:43.479Z,56.57
2022-11-07T09:35:25.163Z,56.70
2022-11-07T09:38:08.954Z,56.00
2022-11-07T09:40:58.361Z,56.20
2022-11-07T09:44:07.546Z,56.64
2022-11-07T09:46:59.094Z,55.86
2022-11-07T09:49:47.403Z,54.74
2022-11-07T09:52:40.754Z,53.58
2022-11-07T09:55:28.153Z,53.45
2022-11-07T09:58:20.154Z,53.73
2022-11-07T10:01:07.710Z,53.13
2022-11-07T10:04:23.656Z,52.39
2022-11-07T10:07:01.231Z,51.14
2022-11-07T10:09:56.923Z,51.74
2022-11-07T10:13:02.794Z,53.19
2022-11-07T10:15:56.866Z,53.38
2022-11-07T10:18:55.220Z,52.99
2022-11-07T10:21:46.847Z,53.78
2022-11-07T10:24:48.361Z,52.11
2022-11-07T10:27:40.851Z,52.32
2022-11-07T10:30:24.665Z,52.54
2022-11-07T10:33:18.321Z,52.14
2022-11-07T10:36:06.938Z,50.93
2022-11-07T10:38:51.107Z,51.20
2022-11-07T10:41:37.286Z,50.98
2022-11-07T10:44:25.485Z,51.23
2022-11-07T10:47:17.262Z,50.84
2022-11-07T10:50:02.625Z,50.85
2022-11-07T10:52:54.233Z,50.48
2022-11-07T10:55:45.428Z,51.45
2022-11-07T10:58:35.537Z,49.82
2022-11-07T11:01:26.572Z,49.87
2022-11-07T11:04:21.319Z,50.60
2022-11-07T11:07:07.589Z,49.66
2022-11-07T11:09:52.985Z,49.24
2022-11-07T11:12:37.635Z,49.60
2022-11-07T11:15:24.144Z,48.15
2022-11-07T11:18:18.764Z,49.11
2022-11-07T11:21:06.167Z,49.76
2022-11-07T11:23:50.654Z,49.88
2022-11-07T11:26:37.829Z,49.16
2022-11-07T11:29:35.386Z,49.47
2022-11-07T11:32:28.640Z,47.84
2022-11-07T11:35:40.355Z,48.81
2022-11-07T11:38:29.602Z,48.98
2022-11-07T11:41:21.144Z,48.85
2022-11-07T11:44:13.998Z,47.65
2022-11-07T11:47:05.522Z,48.05
2022-11-07T11:49:53.876Z,48.44
2022-11-07T11:52:39.397Z,48.11
2022-11-07T11:55:29.519Z,48.69
2022-11-07T11:58:24.927Z,48.96
2022-11-07T12:01:20.985Z,49.74
2022-11-07T12:04:35.699Z,49.62
2022-11-07T12:07:47.760Z,49.49
2022-11-07T12:10:36.628Z,49.56
2022-11-07T12:13:33.674Z,49.56
2022-11-07T12:16:27.005Z,49.46
2022-11-07T12:19:22.102Z,48.96
2022-11-07T12:22:11.346Z,48.86
2022-11-07T12:25:03.157Z,48.75
2022-11-07T12:27:54.613Z,48.02
2022-11-07T12:30:52.872Z,48.83
2022-11-07T12:33:45.201Z,48.72
2022-11-07T12:36:44.458Z,49.02
2022-11-07T12:39:44.109Z,49.48
2022-11-07T12:42:41.672Z,49.95
2022-11-07T12:45:38.159Z,49.38
2022-11-07T12:49:03.604Z,48.79
2022-11-07T12:51:55.728Z,48.45
2022-11-07T12:54:48.222Z,48.14
2022-11-07T12:57:35.552Z,48.46
2022-11-07T13:00:28.831Z,49.07
2022-11-07T13:03:38.562Z,49.34
2022-11-07T13:06:31.980Z,48.41
2022-11-07T13:09:25.011Z,47.21
2022-11-07T13:12:19.042Z,47.72
2022-11-07T13:15:05.664Z,47.61
2022-11-07T13:17:49.784Z,47.73
2022-11-07T13:20:34.086Z,48.44
2022-11-07T13:23:18.888Z,47.91
2022-11-07T13:26:25.873Z,47.89
2022-11-07T13:29:25.081Z,47.76
2022-11-07T13:32:13.040Z,47.84
2022-11-07T13:34:59.400Z,47.79
2022-11-07T13:37:48.233Z,47.76
2022-11-07T13:40:35.521Z,47.27
2022-11-07T13:43:22.690Z,47.55
2022-11-07T13:46:09.963Z,47.67
2022-11-07T13:48:58.239Z,47.32
2022-11-07T13:51:45.571Z,48.00
2022-11-07T13:54:35.966Z,48.99
2022-11-07T13:57:23.454Z,48.92
2022-11-07T14:00:14.926Z,48.86
2022-11-07T14:03:00.755Z,49.00
2022-11-07T14:05:49.507Z,48.93
2022-11-07T14:08:37.576Z,49.34
2022-11-07T14:11:24.020Z,49.59
2022-11-07T14:14:09.014Z,49.34
2022-11-07T14:16:59.094Z,48.33
2022-11-07T14:19:44.450Z,49.02
2022-11-07T14:22:29.637Z,49.02
2022-11-07T14:25:23.416Z,49.20
2022-11-07T14:28:08.637Z,49.14
2022-11-07T14:30:53.875Z,49.48
2022-11-07T14:33:37.778Z,49.39
2022-11-07T14:36:23.300Z,50.12
2022-11-07T14:39:15.276Z,50.52
2022-11-07T14:42:02.504Z,50.99
2022-11-07T14:44:54.358Z,51.18
2022-11-07T14:47:39.466Z,51.18
2022-11-07T14:50:28.785Z,50.96
2022-11-07T14:53:19.331Z,51.41
2022-11-07T14:56:09.286Z,52.01
2022-11-07T14:58:53.263Z,52.34
2022-11-07T15:01:37.249Z,52.20
2022-11-07T15:04:29.559Z,52.23
2022-11-07T15:07:19.948Z,52.36
2022-11-07T15:10:16.584Z,52.78
2022-11-07T15:13:06.881Z,52.86
2022-11-07T15:16:02.095Z,52.98
2022-11-07T15:18:49.287Z,53.55
2022-11-07T15:21:36.121Z,54.70
2022-11-07T15:24:41.373Z,54.97
2022-11-07T15:27:32.607Z,54.82
2022-11-07T15:30:30.121Z,55.52
2022-11-07T15:33:15.536Z,55.80
2022-11-07T15:36:02.279Z,56.09
2022-11-07T15:38:46.433Z,56.03
2022-11-07T15:41:30.551Z,57.04
2022-11-07T15:44:14.693Z,57.18
2022-11-07T15:47:00.445Z,57.04
2022-11-07T15:49:44.508Z,57.57
2022-11-07T15:52:28.827Z,57.93
2022-11-07T15:55:18.171Z,57.75
2022-11-07T15:58:02.165Z,57.88
2022-11-07T16:00:46.217Z,57.98
2022-11-07T16:03:31.647Z,57.98
2022-11-07T16:06:21.127Z,58.33
2022-11-07T16:09:06.218Z,58.29
2022-11-07T16:11:50.548Z,59.26
2022-11-07T16:14:43.894Z,59.07
2022-11-07T16:17:29.203Z,59.81
2022-11-07T16:20:18.415Z,60.00
2022-11-07T16:23:03.328Z,60.44
2022-11-07T16:25:51.473Z,61.10
2022-11-07T16:28:38.905Z,62.15
2022-11-07T16:31:23.281Z,62.58
2022-11-07T16:34:07.892Z,62.92
2022-11-07T16:36:53.487Z,63.34
2022-11-07T16:39:37.499Z,63.76
2022-11-07T16:42:21.692Z,64.93
2022-11-07T16:45:06.400Z,64.43
2022-11-07T16:47:50.432Z,65.08
2022-11-07T16:50:34.547Z,65.41
2022-11-07T16:53:20.711Z,66.28
2022-11-07T16:56:05.166Z,66.97
2022-11-07T16:58:49.679Z,67.51
2022-11-07T17:01:33.766Z,67.67
2022-11-07T17:04:17.859Z,67.73
2022-11-07T17:07:01.992Z,67.69
2022-11-07T17:09:47.480Z,67.45
2022-11-07T17:12:31.339Z,68.04
2022-11-07T17:15:15.230Z,66.30
2022-11-07T17:18:02.298Z,68.57
2022-11-07T17:20:51.245Z,65.41
2022-11-07T17:23:36.821Z,64.82
2022-11-07T17:26:23.206Z,65.09
2022-11-07T17:29:08.476Z,65.00
2022-11-07T17:31:52.351Z,64.96
2022-11-07T17:34:36.253Z,65.38
2022-11-07T17:37:21.136Z,65.37
2022-11-07T17:40:06.742Z,65.22
2022-11-07T17:42:51.874Z,64.85
2022-11-07T17:45:35.670Z,65.64
2022-11-07T17:48:19.756Z,65.14
2022-11-07T17:51:03.621Z,65.17
2022-11-07T17:53:47.532Z,65.18
2022-11-07T17:56:32.383Z,65.28
2022-11-07T17:59:19.378Z,65.84
2022-11-07T18:02:03.347Z,66.62
2022-11-07T18:04:48.078Z,65.97
2022-11-07T18:07:33.137Z,65.91
2022-11-07T18:10:17.396Z,65.89
2022-11-07T18:13:01.186Z,65.85
2022-11-07T18:15:46.461Z,67.67
2022-11-07T18:18:30.313Z,66.85
2022-11-07T18:21:14.884Z,67.04
2022-11-07T18:23:59.578Z,66.01
2022-11-07T18:26:43.826Z,66.34
2022-11-07T18:29:27.609Z,67.17
2022-11-07T18:32:12.787Z,67.25
2022-11-07T18:34:56.698Z,66.67
2022-11-07T18:37:40.674Z,66.96
2022-11-07T18:40:24.526Z,66.90
2022-11-07T18:43:11.818Z,66.95
2022-11-07T18:45:56.948Z,66.51
2022-11-07T18:48:43.239Z,67.14
2022-11-07T18:51:27.218Z,67.49
2022-11-07T18:54:13.061Z,67.76
2022-11-07T18:56:56.829Z,67.85
2022-11-07T18:59:40.550Z,68.09
2022-11-07T19:02:24.345Z,67.11
2022-11-07T19:05:09.869Z,66.86
2022-11-07T19:07:53.600Z,67.77
2022-11-07T19:10:37.296Z,68.52
2022-11-07T19:13:21.131Z,68.85
2022-11-07T19:16:06.596Z,70.18
2022-11-07T19:18:51.286Z,69.75
2022-11-07T19:21:38.201Z,70.26
2022-11-07T19:24:25.312Z,70.60
2022-11-07T19:27:09.479Z,70.99
2022-11-07T19:29:53.422Z,70.81
2022-11-07T19:32:37.276Z,72.24
2022-11-07T19:35:21.084Z,72.78
2022-11-07T19:38:09.088Z,71.95
2022-11-07T19:40:53.148Z,72.30
2022-11-07T19:43:37.065Z,72.21
2022-11-07T19:46:22.754Z,71.76
2022-11-07T19:49:06.488Z,72.41
2022-11-07T19:51:52.284Z,72.44
2022-11-07T19:54:37.703Z,72.42
2022-11-07T19:57:21.522Z,72.20
2022-11-07T20:00:06.387Z,72.12
2022-11-07T20:02:50.165Z,72.20
2022-11-07T20:05:34.483Z,72.41
2022-11-07T20:08:18.282Z,73.23
2022-11-07T20:11:03.433Z,73.01
2022-11-07T20:13:48.123Z,73.46
2022-11-07T20:16:32.309Z,73.80
2022-11-07T20:19:16.035Z,74.26
2022-11-07T20:21:59.800Z,74.02
2022-11-07T20:24:43.588Z,74.93
2022-11-07T20:27:28.905Z,74.90
2022-11-07T20:30:13.796Z,75.46
2022-11-07T20:32:57.833Z,75.82
2022-11-07T20:35:41.839Z,76.22
2022-11-07T20:38:25.693Z,75.44
2022-11-07T20:41:10.025Z,75.56
2022-11-07T20:43:55.984Z,75.87
2022-11-07T20:46:41.767Z,75.89
2022-11-07T20:49:25.466Z,77.05
2022-11-07T20:52:09.367Z,76.26
2022-11-07T20:54:53.577Z,75.67
2022-11-07T20:57:37.403Z,75.16
2022-11-07T21:00:23.330Z,75.13
2022-11-07T21:03:07.230Z,75.16
2022-11-07T21:05:51.815Z,75.19
2022-11-07T21:08:37.380Z,75.00
2022-11-07T21:11:21.230Z,75.85
2022-11-07T21:14:05.384Z,75.82
2022-11-07T21:16:50.645Z,75.66
2022-11-07T21:19:34.487Z,74.97
2022-11-07T21:22:18.474Z,74.81
2022-11-07T21:25:03.788Z,75.65
2022-11-07T21:27:47.593Z,75.92
2022-11-07T21:30:32.018Z,75.83
2022-11-07T21:33:17.447Z,75.34
2022-11-07T21:36:01.721Z,75.69
2022-11-07T21:38:46.860Z,75.17
2022-11-07T21:41:32.642Z,74.95
2022-11-07T21:44:16.756Z,75.68
2022-11-07T21:47:00.784Z,75.77
2022-11-07T21:49:46.354Z,76.44
2022-11-07T21:52:30.241Z,75.83
2022-11-07T21:55:14.231Z,75.25
2022-11-07T21:57:58.294Z,75.95
2022-11-07T22:00:42.287Z,75.49
2022-11-07T22:03:51.111Z,75.28
2022-11-07T22:06:33.743Z,75.24
2022-11-07T22:09:19.585Z,74.86
2022-11-07T22:12:03.347Z,75.49
2022-11-07T22:14:49.161Z,75.61
2022-11-07T22:17:32.900Z,76.18
2022-11-07T22:20:16.995Z,76.03
2022-11-07T22:23:02.136Z,76.41
2022-11-07T22:25:45.865Z,76.40
2022-11-07T22:28:29.662Z,76.47
2022-11-07T22:31:15.125Z,76.88
2022-11-07T22:34:00.891Z,76.89
2022-11-07T22:36:44.662Z,78.31
2022-11-07T22:39:29.816Z,78.56
2022-11-07T22:42:13.537Z,79.30
2022-11-07T22:44:57.232Z,78.78
2022-11-07T22:47:41.022Z,79.04
2022-11-07T22:50:24.775Z,79.21
2022-11-07T22:53:08.628Z,79.25
2022-11-07T22:55:53.746Z,77.82
2022-11-07T22:58:37.828Z,78.38
2022-11-07T23:01:23.622Z,78.08
2022-11-07T23:04:08.278Z,77.59
2022-11-07T23:06:52.013Z,77.79
2022-11-07T23:09:35.760Z,78.44
2022-11-07T23:12:20.888Z,77.82
2022-11-07T23:15:05.255Z,79.27
2022-11-07T23:17:48.974Z,78.58
2022-11-07T23:20:49.534Z,78.99
2022-11-07T23:23:33.248Z,78.58
2022-11-07T23:26:19.349Z,78.38
2022-11-07T23:29:10.830Z,78.13
2022-11-07T23:31:55.345Z,80.03
2022-11-07T23:34:39.947Z,79.88
2022-11-07T23:37:23.674Z,78.91
2022-11-07T23:40:08.767Z,79.35
2022-11-07T23:42:52.544Z,78.97
2022-11-07T23:45:54.945Z,79.10
2022-11-07T23:48:56.279Z,80.67
2022-11-07T23:51:40.805Z,80.39
2022-11-07T23:54:38.330Z,81.13
2022-11-07T23:57:22.307Z,80.51
